PWSweather.com
Personal Weather Stations
Station Observations
IPISA4
I Passi, PisaIT 56123

I PassiPisaIT 56123

Lat: 43.7387, Lon: 10.3992

Elevation: 13

Station Type: Oregon Scientific / WMR88

http://www.meteoipassi.it

Latest ConditionsUpdated 2:50:05 AM GMT+01:01 Wednesday, Aug 21, 2019
Currently Today's Max Today's Min Today's Average
Temperature 66.7°F19.3°C 70.8°F21.6°C 66.5°F19.2°C 68.4°F20.2°C
Dew Point 52.4°F11.3°C 55.3°F12.9°C 52.4°F11.3°C 53.7°F12.1°C
Winds 2.0 mph NW3.2 kmh NW 2.0 mph -3.2 kmh - - 0.3 mph 0.5 kmh
Wind Gusts 2.0 mph3.2 kmh 2.0 mph3.2 kmh - -
Humidity 60% 64% 56% 60%
Pressure 30.04 in1017.3 mb 30.04 in1017.3 mb 30.04 in1017.3 mb -
Hour Temp Dew Point Humidity Winds Wind Gusts Pressure Precip Precip Rate Daily Precip Total
02:50 AM 66.7°F19.3°C 52.4°F11.3°C 60% 2.0 mph NW3.2 kmh NW 2.0 mph3.2 kmh 30.04 in1017.3 mb 0.00 in0.0 mm 0.00 in0.0 mm 0.00 in0.0 mm
02:45 AM 66.9°F19.4°C 52.5°F11.4°C 60% 1.0 mph WNW1.6 kmh WNW 2.0 mph3.2 kmh 30.04 in1017.3 mb 0.00 in0.0 mm 0.00 in0.0 mm 0.00 in0.0 mm
02:40 AM 66.7°F19.3°C 52.4°F11.3°C 60% 2.0 mph W3.2 kmh W 2.0 mph3.2 kmh 30.04 in1017.3 mb 0.00 in0.0 mm 0.00 in0.0 mm 0.00 in0.0 mm
02:35 AM 66.7°F19.3°C 52.4°F11.3°C 60% Calm Calm 2.0 mph3.2 kmh 30.04 in1017.3 mb 0.00 in0.0 mm 0.00 in0.0 mm 0.00 in0.0 mm
02:30 AM 66.7°F19.3°C 52.4°F11.3°C 60% Calm Calm -- 30.04 in1017.3 mb 0.00 in0.0 mm 0.00 in0.0 mm 0.00 in0.0 mm
02:25 AM 66.5°F19.2°C 52.6°F11.4°C 61% Calm Calm -- 30.04 in1017.3 mb 0.00 in0.0 mm 0.00 in0.0 mm 0.00 in0.0 mm
02:20 AM 66.5°F19.2°C 52.6°F11.4°C 61% Calm Calm -- 30.04 in1017.3 mb 0.00 in0.0 mm 0.00 in0.0 mm 0.00 in0.0 mm
02:15 AM 66.7°F19.3°C 52.8°F11.6°C 61% Calm Calm 1.0 mph1.6 kmh 30.04 in1017.3 mb 0.00 in0.0 mm 0.00 in0.0 mm 0.00 in0.0 mm
02:10 AM 67.1°F19.5°C 53.1°F11.7°C 61% Calm Calm 2.0 mph3.2 kmh 30.04 in1017.3 mb 0.00 in0.0 mm 0.00 in0.0 mm 0.00 in0.0 mm
02:05 AM 67.6°F19.8°C 53.6°F12.0°C 61% Calm Calm -- 30.04 in1017.3 mb 0.00 in0.0 mm 0.00 in0.0 mm 0.00 in0.0 mm
02:00 AM 67.8°F19.9°C 54.3°F12.4°C 62% Calm Calm 1.0 mph1.6 kmh 30.04 in1017.3 mb 0.00 in0.0 mm 0.00 in0.0 mm 0.00 in0.0 mm
01:55 AM 68.0°F20.0°C 54.4°F12.4°C 62% 1.0 mph NE1.6 kmh NE 1.0 mph1.6 kmh 30.04 in1017.3 mb 0.00 in0.0 mm 0.00 in0.0 mm 0.00 in0.0 mm
01:50 AM 67.8°F19.9°C 54.7°F12.6°C 63% Calm Calm 2.0 mph3.2 kmh 30.04 in1017.3 mb 0.00 in0.0 mm 0.00 in0.0 mm 0.00 in0.0 mm
01:45 AM 67.8°F19.9°C 55.1°F12.8°C 64% 2.0 mph NNE3.2 kmh NNE 2.0 mph3.2 kmh 30.04 in1017.3 mb 0.00 in0.0 mm 0.00 in0.0 mm 0.00 in0.0 mm
01:40 AM 68.0°F20.0°C 54.4°F12.4°C 62% Calm Calm -- 30.04 in1017.3 mb 0.00 in0.0 mm 0.00 in0.0 mm 0.00 in0.0 mm
01:35 AM 68.0°F20.0°C 54.0°F12.2°C 61% Calm Calm -- 30.04 in1017.3 mb 0.00 in0.0 mm 0.00 in0.0 mm 0.00 in0.0 mm
01:30 AM 68.1°F20.1°C 53.7°F12.1°C 60% Calm Calm -- 30.04 in1017.3 mb 0.00 in0.0 mm 0.00 in0.0 mm 0.00 in0.0 mm
01:25 AM 68.3°F20.2°C 53.9°F12.2°C 60% Calm Calm -- 30.04 in1017.3 mb 0.00 in0.0 mm 0.00 in0.0 mm 0.00 in0.0 mm
01:20 AM 68.5°F20.3°C 54.0°F12.2°C 60% Calm Calm -- 30.04 in1017.3 mb 0.00 in0.0 mm 0.00 in0.0 mm 0.00 in0.0 mm
01:15 AM 68.3°F20.2°C 53.4°F11.9°C 59% Calm Calm -- 30.04 in1017.3 mb 0.00 in0.0 mm 0.00 in0.0 mm 0.00 in0.0 mm
01:10 AM 68.5°F20.3°C 53.6°F12.0°C 59% Calm Calm -- 30.04 in1017.3 mb 0.00 in0.0 mm 0.00 in0.0 mm 0.00 in0.0 mm
01:05 AM 68.3°F20.2°C 53.4°F11.9°C 59% Calm Calm 2.0 mph3.2 kmh 30.04 in1017.3 mb 0.00 in0.0 mm 0.00 in0.0 mm 0.00 in0.0 mm
01:00 AM 68.9°F20.5°C 53.9°F12.2°C 59% Calm Calm 1.0 mph1.6 kmh 30.04 in1017.3 mb 0.00 in0.0 mm 0.00 in0.0 mm 0.00 in0.0 mm
12:55 AM 69.2°F20.7°C 54.3°F12.4°C 59% 1.0 mph ENE1.6 kmh ENE 1.0 mph1.6 kmh 30.04 in1017.3 mb 0.00 in0.0 mm 0.00 in0.0 mm 0.00 in0.0 mm
12:50 AM 69.2°F20.7°C 54.3°F12.4°C 59% Calm Calm -- 30.04 in1017.3 mb 0.00 in0.0 mm 0.00 in0.0 mm 0.00 in0.0 mm
12:45 AM 69.2°F20.7°C 54.3°F12.4°C 59% Calm Calm -- 30.04 in1017.3 mb 0.00 in0.0 mm 0.00 in0.0 mm 0.00 in0.0 mm
12:40 AM 69.8°F21.0°C 54.3°F12.4°C 58% Calm Calm -- 30.04 in1017.3 mb 0.00 in0.0 mm 0.00 in0.0 mm 0.00 in0.0 mm
12:35 AM 70.3°F21.3°C 54.8°F12.7°C 58% Calm Calm -- 30.04 in1017.3 mb 0.00 in0.0 mm 0.00 in0.0 mm 0.00 in0.0 mm
12:30 AM 70.5°F21.4°C 55.0°F12.8°C 58% Calm Calm -- 30.04 in1017.3 mb 0.00 in0.0 mm 0.00 in0.0 mm 0.00 in0.0 mm
12:25 AM 70.8°F21.6°C 55.3°F12.9°C 58% Calm Calm -- 30.04 in1017.3 mb 0.00 in0.0 mm 0.00 in0.0 mm 0.00 in0.0 mm
12:20 AM 70.5°F21.4°C 55.0°F12.8°C 58% Calm Calm -- 30.04 in1017.3 mb 0.00 in0.0 mm 0.00 in0.0 mm 0.00 in0.0 mm
12:15 AM 70.3°F21.3°C 54.3°F12.4°C 57% Calm Calm -- 30.04 in1017.3 mb 0.00 in0.0 mm 0.00 in0.0 mm 0.00 in0.0 mm
12:10 AM 69.9°F21.1°C 53.5°F11.9°C 56% Calm Calm -- 30.04 in1017.3 mb 0.00 in0.0 mm 0.00 in0.0 mm 0.00 in0.0 mm
12:05 AM 69.6°F20.9°C 53.2°F11.8°C 56% Calm Calm 2.0 mph3.2 kmh 30.04 in1017.3 mb 0.00 in0.0 mm 0.00 in0.0 mm 0.00 in0.0 mm
12:00 AM 69.6°F20.9°C 53.2°F11.8°C 56% 2.0 mph NE3.2 kmh NE 2.0 mph3.2 kmh 30.04 in1017.3 mb 0.00 in0.0 mm 0.00 in0.0 mm 0.00 in0.0 mm